Time;durP1;ratioP1;P1;durP2;ratioP2;P2;SDS_P1;SDS_P2;PMS_P1;PMS_P2;Temp;Humidity;BMP_temperature;BMP_pressure;BME280_temperature;BME280_humidity;BME280_pressure;Samples;Min_cycle;Max_cycle;Signal;HPM_P1;HPM_P2
2021/01/19 00:01:06;;;;;;;4.10;3.00;;;;;;;1.10;99.35;98832.56;5115389;28;20210;-68
2021/01/19 00:03:32;;;;;;;4.90;3.20;;;;;;;1.01;100.00;98830.16;5114996;28;20672;-68
2021/01/19 00:05:58;;;;;;;4.73;3.27;;;;;;;0.85;100.00;98826.13;5115445;28;20248;-67
2021/01/19 00:08:24;;;;;;;4.80;3.23;;;;;;;0.92;100.00;98825.13;5115324;28;20638;-68
2021/01/19 00:10:50;;;;;;;3.87;3.00;;;;;;;0.96;100.00;98824.19;5114992;28;20691;-68
2021/01/19 00:13:20;;;;;;;5.13;3.07;;;;;;;0.99;100.00;98824.09;5114988;28;20251;-66
2021/01/19 00:15:46;;;;;;;5.30;3.47;;;;;;;1.03;100.00;98819.69;5115214;28;20231;-66
2021/01/19 00:18:14;;;;;;;3.33;2.80;;;;;;;1.04;100.00;98822.28;5114868;27;20217;-66
2021/01/19 00:20:40;;;;;;;4.77;3.30;;;;;;;1.06;99.45;98824.84;5115067;28;20218;-66
2021/01/19 00:23:06;;;;;;;3.50;2.90;;;;;;;0.97;99.80;98823.28;5112989;28;20202;-64
2021/01/19 00:25:35;;;;;;;4.27;3.20;;;;;;;0.89;99.69;98817.41;5114450;28;20267;-66
2021/01/19 00:28:01;;;;;;;5.13;2.60;;;;;;;0.85;99.97;98815.72;5114970;28;20206;-66
2021/01/19 00:30:27;;;;;;;4.97;3.10;;;;;;;0.81;99.96;98814.06;5114897;28;20202;-67
2021/01/19 00:32:53;;;;;;;3.30;2.97;;;;;;;0.77;100.00;98816.78;5114530;28;20203;-68
2021/01/19 00:35:20;;;;;;;3.80;3.20;;;;;;;0.77;100.00;98811.56;5114692;28;20329;-64
2021/01/19 00:37:46;;;;;;;3.57;2.90;;;;;;;0.75;100.00;98811.59;5114654;28;20229;-68
2021/01/19 00:40:13;;;;;;;4.93;3.00;;;;;;;0.77;99.79;98814.16;5114535;28;20659;-67
2021/01/19 00:42:39;;;;;;;4.90;2.70;;;;;;;0.68;99.95;98809.16;5114520;28;20211;-68
2021/01/19 00:45:06;;;;;;;4.37;2.73;;;;;;;0.57;100.00;98811.94;5114180;28;20587;-68
2021/01/19 00:47:32;;;;;;;3.80;2.93;;;;;;;0.68;99.95;98812.59;5114511;28;20213;-66
2021/01/19 00:49:58;;;;;;;5.50;3.00;;;;;;;0.55;100.00;98803.31;5112954;28;20667;-66
2021/01/19 00:52:25;;;;;;;3.70;3.10;;;;;;;0.44;100.00;98807.84;5114171;28;20250;-65
2021/01/19 00:54:51;;;;;;;3.50;2.83;;;;;;;0.44;100.00;98797.47;5114102;28;20233;-66
2021/01/19 00:57:17;;;;;;;4.63;2.80;;;;;;;0.37;100.00;98801.06;5114210;28;20210;-67
2021/01/19 00:59:43;;;;;;;4.17;3.30;;;;;;;0.31;100.00;98800.34;5114116;28;20237;-66
2021/01/19 01:02:09;;;;;;;3.47;2.80;;;;;;;0.36;100.00;98796.75;5113948;28;20213;-66
2021/01/19 01:04:35;;;;;;;4.00;2.63;;;;;;;0.27;100.00;98801.25;5114251;28;20695;-67
2021/01/19 01:07:01;;;;;;;4.63;3.17;;;;;;;0.21;100.00;98799.66;5114073;28;20217;-67
2021/01/19 01:09:28;;;;;;;4.97;3.00;;;;;;;0.23;100.00;98797.88;5113787;28;20229;-67
2021/01/19 01:11:54;;;;;;;3.67;2.73;;;;;;;0.23;100.00;98787.47;5114133;28;20210;-65
2021/01/19 01:14:20;;;;;;;4.27;3.13;;;;;;;0.24;100.00;98786.59;5113979;28;20313;-66
2021/01/19 01:16:46;;;;;;;3.03;2.67;;;;;;;0.22;100.00;98787.50;5112738;28;20269;-65
2021/01/19 01:19:12;;;;;;;5.57;2.80;;;;;;;0.21;100.00;98797.06;5113649;28;20669;-65
2021/01/19 01:21:38;;;;;;;5.10;3.17;;;;;;;0.21;100.00;98786.66;5113641;28;20235;-65
2021/01/19 01:24:06;;;;;;;4.97;3.20;;;;;;;0.15;100.00;98789.38;5113935;28;20210;-65
2021/01/19 01:26:33;;;;;;;4.80;3.10;;;;;;;0.18;100.00;98784.09;5113754;28;20209;-65
2021/01/19 01:28:59;;;;;;;3.57;2.70;;;;;;;0.26;100.00;98786.56;5113909;28;20217;-66
2021/01/19 01:31:24;;;;;;;5.90;3.33;;;;;;;0.27;100.00;98780.47;5113440;28;20237;-66
2021/01/19 01:33:50;;;;;;;3.60;2.80;;;;;;;0.13;100.00;98788.50;5113262;28;20293;-66
2021/01/19 01:36:17;;;;;;;4.60;2.67;;;;;;;0.18;100.00;98788.41;5113429;28;20703;-66
2021/01/19 01:38:44;;;;;;;4.17;2.50;;;;;;;0.20;100.00;98781.47;5113440;28;20217;-66
2021/01/19 01:41:17;;;;;;;4.17;2.90;;;;;;;0.20;100.00;98786.66;5113721;28;20210;-66
2021/01/19 01:43:44;;;;;;;5.67;2.83;;;;;;;0.25;100.00;98783.09;5112311;28;20205;-66
2021/01/19 01:46:11;;;;;;;6.47;3.03;;;;;;;0.37;100.00;98777.66;5113627;28;20206;-66
2021/01/19 01:48:39;;;;;;;3.33;3.03;;;;;;;0.49;100.00;98772.22;5113690;28;20217;-67
2021/01/19 01:51:06;;;;;;;3.50;2.53;;;;;;;0.58;100.00;98769.47;5113596;28;20586;-66
2021/01/19 01:53:32;;;;;;;4.90;2.53;;;;;;;0.62;100.00;98765.06;5113628;28;20287;-66
2021/01/19 01:55:58;;;;;;;3.30;2.93;;;;;;;0.65;100.00;98760.66;5113123;28;20234;-66
2021/01/19 01:58:25;;;;;;;5.60;2.77;;;;;;;0.68;100.00;98764.94;5113514;28;20205;-66
2021/01/19 02:00:53;;;;;;;5.07;2.90;;;;;;;0.59;100.00;98752.97;5113317;28;20222;-66
2021/01/19 02:03:19;;;;;;;3.80;2.40;;;;;;;0.54;100.00;98748.72;5113266;28;20671;-66
2021/01/19 02:05:45;;;;;;;4.43;3.10;;;;;;;0.47;100.00;98748.00;5113430;28;20217;-66
2021/01/19 02:08:23;;;;;;;4.50;2.87;;;;;;;0.47;99.81;98745.41;5111506;28;20261;-66
2021/01/19 02:10:58;;;;;;;3.57;2.60;;;;;;;0.39;100.00;98736.88;5113432;28;20239;-68
2021/01/19 02:13:35;;;;;;;3.23;2.23;;;;;;;0.31;100.00;98733.59;5113395;28;20553;-67
2021/01/19 02:16:15;;;;;;;5.60;2.40;;;;;;;0.21;100.00;98729.47;5113044;28;20232;-67
2021/01/19 02:18:51;;;;;;;3.70;2.40;;;;;;;0.17;100.00;98732.13;5113042;28;20245;-67
2021/01/19 02:21:44;;;;;;;3.83;2.50;;;;;;;0.18;100.00;98724.31;5113263;28;20202;-67
2021/01/19 02:24:12;;;;;;;3.10;2.50;;;;;;;0.23;100.00;98719.88;5113263;28;20224;-67
2021/01/19 02:27:09;;;;;;;3.50;2.57;;;;;;;0.24;100.00;98716.41;5112993;28;20214;-68
2021/01/19 02:30:07;;;;;;;3.93;2.53;;;;;;;0.34;100.00;98715.34;5112877;28;20668;-67
2021/01/19 02:32:43;;;;;;;3.53;2.63;;;;;;;0.33;100.00;98711.00;5113161;28;20243;-67
2021/01/19 02:35:15;;;;;;;4.83;2.73;;;;;;;0.30;100.00;98705.88;5111155;28;20232;-67
2021/01/19 02:37:50;;;;;;;5.20;3.10;;;;;;;0.20;100.00;98704.34;5112877;28;20243;-67
2021/01/19 02:40:18;;;;;;;4.77;3.23;;;;;;;0.20;100.00;98704.34;5113235;28;20213;-67
2021/01/19 02:42:50;;;;;;;3.27;2.57;;;;;;;0.23;100.00;98709.50;5112916;28;20218;-67
2021/01/19 02:45:16;;;;;;;3.20;2.90;;;;;;;0.22;100.00;98707.78;5112736;28;20682;-68
2021/01/19 02:47:43;;;;;;;3.10;2.63;;;;;;;0.20;100.00;98708.69;5115714;28;20221;-68
2021/01/19 02:50:10;;;;;;;4.10;3.07;;;;;;;0.26;100.00;98698.19;5116721;28;20228;-68
2021/01/19 02:52:38;;;;;;;7.40;2.83;;;;;;;0.28;100.00;98692.06;5116839;28;20210;-68
2021/01/19 02:55:05;;;;;;;3.17;2.67;;;;;;;0.33;100.00;98705.81;5116605;28;20234;-68
2021/01/19 02:57:51;;;;;;;3.23;2.90;;;;;;;0.44;100.00;98693.44;5116556;28;20209;-68
2021/01/19 03:00:22;;;;;;;4.23;2.60;;;;;;;0.57;100.00;98700.09;5116227;28;20241;-68
2021/01/19 03:02:51;;;;;;;3.20;2.70;;;;;;;0.65;100.00;98703.44;5115888;28;20206;-68
2021/01/19 03:05:19;;;;;;;3.83;2.37;;;;;;;0.78;100.00;98704.00;5116294;28;20210;-67
2021/01/19 03:07:48;;;;;;;3.57;2.70;;;;;;;0.83;100.00;98703.03;5116180;28;20755;-67
2021/01/19 03:10:17;;;;;;;4.70;2.60;;;;;;;0.86;100.00;98697.75;5116372;28;20206;-67
2021/01/19 03:12:45;;;;;;;3.80;2.70;;;;;;;0.93;99.73;98693.28;5116374;28;20241;-67
2021/01/19 03:15:12;;;;;;;2.83;2.30;;;;;;;0.97;99.26;98695.78;5116256;28;20238;-67
2021/01/19 03:17:41;;;;;;;3.30;2.50;;;;;;;1.04;98.98;98680.88;5116599;28;20210;-67
2021/01/19 03:20:09;;;;;;;3.83;2.80;;;;;;;1.02;99.03;98688.72;5116049;28;20262;-68
2021/01/19 03:22:35;;;;;;;3.47;2.53;;;;;;;1.06;97.98;98681.69;5116091;28;20220;-67
2021/01/19 03:25:01;;;;;;;4.30;2.40;;;;;;;1.04;98.00;98681.72;5115819;28;20206;-68
2021/01/19 03:27:27;;;;;;;2.73;2.10;;;;;;;1.04;97.60;98681.72;5114753;28;20255;-67
2021/01/19 03:29:53;;;;;;;3.50;2.30;;;;;;;1.04;97.57;98681.72;5115701;28;20246;-68
2021/01/19 03:32:19;;;;;;;2.93;2.03;;;;;;;1.11;97.39;98683.28;5116006;28;20209;-68
2021/01/19 03:34:45;;;;;;;2.63;2.10;;;;;;;1.13;97.02;98673.72;5116095;28;20248;-68
2021/01/19 03:37:12;;;;;;;2.60;2.40;;;;;;;1.22;96.01;98676.09;5115813;28;20270;-68
2021/01/19 03:39:38;;;;;;;4.43;2.73;;;;;;;1.22;96.62;98670.88;5115902;28;20209;-68
2021/01/19 03:42:04;;;;;;;3.87;2.30;;;;;;;1.26;96.15;98682.94;5115790;28;20213;-68
2021/01/19 03:44:30;;;;;;;2.60;2.37;;;;;;;1.22;96.04;98676.09;5115768;28;20210;-65
2021/01/19 03:46:56;;;;;;;2.30;2.10;;;;;;;1.26;95.41;98672.53;5115841;28;20311;-66
2021/01/19 03:49:22;;;;;;;2.90;2.20;;;;;;;1.33;95.37;98674.09;5115550;28;20210;-65
2021/01/19 03:51:48;;;;;;;2.40;2.20;;;;;;;1.36;95.01;98668.78;5115600;28;20202;-66
2021/01/19 03:54:15;;;;;;;2.10;1.70;;;;;;;1.36;94.92;98667.97;5113863;28;20244;-66
2021/01/19 03:56:41;;;;;;;3.13;2.43;;;;;;;1.39;95.01;98663.53;5115146;28;20245;-65
2021/01/19 03:59:07;;;;;;;2.97;2.10;;;;;;;1.40;95.26;98653.94;5114371;28;20730;-65
2021/01/19 04:01:39;;;;;;;3.07;2.20;;;;;;;1.42;95.04;98652.19;5115347;28;20249;-66
2021/01/19 04:04:05;;;;;;;2.37;2.17;;;;;;;1.43;94.54;98657.38;5115383;28;20206;-66
2021/01/19 04:06:31;;;;;;;4.17;2.33;;;;;;;1.45;95.14;98647.75;5115279;28;20206;-66
2021/01/19 04:08:57;;;;;;;2.80;2.30;;;;;;;1.37;94.99;98649.69;5115284;28;20206;-65
2021/01/19 04:11:25;;;;;;;2.73;2.00;;;;;;;1.21;96.11;98637.94;5115310;28;20682;-64
2021/01/19 04:13:51;;;;;;;3.87;2.00;;;;;;;0.98;97.16;98639.38;5115255;28;20237;-66
2021/01/19 04:16:17;;;;;;;3.70;2.00;;;;;;;0.84;97.38;98626.69;5115083;28;20233;-64
2021/01/19 04:18:43;;;;;;;3.13;2.00;;;;;;;0.79;98.65;98627.66;5114780;28;20585;-66
2021/01/19 04:21:09;;;;;;;2.70;2.33;;;;;;;0.74;98.88;98629.53;5113054;28;20294;-66
2021/01/19 04:23:35;;;;;;;4.07;2.20;;;;;;;0.76;99.44;98618.22;5114732;28;20267;-66
2021/01/19 04:26:01;;;;;;;2.97;2.03;;;;;;;0.67;99.05;98613.22;5114503;28;20225;-66
2021/01/19 04:28:28;;;;;;;3.50;2.60;;;;;;;0.61;98.68;98618.53;5114928;27;20211;-67
2021/01/19 04:30:54;;;;;;;4.50;2.70;;;;;;;0.58;98.13;98612.56;5114535;28;20660;-66
2021/01/19 04:33:20;;;;;;;3.30;2.30;;;;;;;0.61;97.38;98610.75;5114463;28;20721;-66
2021/01/19 04:35:46;;;;;;;2.67;2.37;;;;;;;0.61;97.67;98596.91;5114457;28;20328;-66
2021/01/19 04:38:12;;;;;;;4.07;2.40;;;;;;;0.54;97.58;98601.38;5114701;28;20209;-66
2021/01/19 04:40:38;;;;;;;3.30;2.63;;;;;;;0.55;96.93;98597.88;5114449;28;20210;-67
2021/01/19 04:43:04;;;;;;;4.80;2.50;;;;;;;0.53;97.91;98599.66;5114559;28;20600;-67
2021/01/19 04:45:33;;;;;;;3.53;2.13;;;;;;;0.52;97.24;98603.16;5112743;28;20209;-67
2021/01/19 04:47:59;;;;;;;3.00;2.30;;;;;;;0.53;97.20;98589.25;5114582;28;20209;-66
2021/01/19 04:50:25;;;;;;;3.10;2.33;;;;;;;0.51;97.58;98585.81;5114685;28;20210;-65
2021/01/19 04:52:54;;;;;;;3.37;2.30;;;;;;;0.56;97.62;98591.78;5114496;28;20551;-68
2021/01/19 04:55:23;;;;;;;4.20;2.17;;;;;;;0.63;95.89;98585.53;5114094;28;20234;-68
2021/01/19 04:57:56;;;;;;;2.67;2.10;;;;;;;0.73;94.80;98579.25;5114377;28;20208;-68
2021/01/19 05:00:28;;;;;;;3.73;2.53;;;;;;;0.77;94.87;98588.69;5114656;28;20234;-68
2021/01/19 05:03:20;;;;;;;3.53;2.27;;;;;;;0.86;95.23;98582.44;5114243;28;20222;-67
2021/01/19 05:06:00;;;;;;;3.97;2.23;;;;;;;0.91;93.82;98573.59;5114569;28;20217;-67
2021/01/19 05:08:34;;;;;;;4.90;2.13;;;;;;;0.85;93.77;98565.94;5114224;28;20599;-67
2021/01/19 05:11:01;;;;;;;2.10;1.90;;;;;;;0.79;93.67;98563.50;5113932;28;20222;-67
2021/01/19 05:13:49;;;;;;;3.07;2.10;;;;;;;0.70;94.19;98557.66;5112063;28;20211;-65
2021/01/19 05:16:16;;;;;;;4.33;2.20;;;;;;;0.57;95.32;98564.88;5113808;28;20233;-65
2021/01/19 05:18:44;;;;;;;2.87;2.13;;;;;;;0.50;95.28;98549.47;5114001;28;20675;-65
2021/01/19 05:21:11;;;;;;;2.57;2.37;;;;;;;0.46;95.86;98551.28;5114013;28;20210;-65
2021/01/19 05:23:37;;;;;;;2.63;2.37;;;;;;;0.43;96.06;98550.50;5113742;28;20210;-65
2021/01/19 05:26:04;;;;;;;3.37;2.50;;;;;;;0.42;96.22;98539.25;5113963;28;20297;-65
2021/01/19 05:28:34;;;;;;;5.27;2.20;;;;;;;0.44;96.23;98532.25;5113633;28;20214;-65
2021/01/19 05:31:04;;;;;;;3.60;2.07;;;;;;;0.42;96.15;98523.63;5113866;28;20221;-64
2021/01/19 05:33:30;;;;;;;2.60;2.40;;;;;;;0.43;96.15;98514.94;5113591;28;20229;-64
2021/01/19 05:36:05;;;;;;;4.33;2.47;;;;;;;0.40;95.50;98502.03;5113647;28;20229;-65
2021/01/19 05:38:39;;;;;;;3.87;2.70;;;;;;;0.41;95.68;98501.13;5112218;28;20212;-65
2021/01/19 05:41:05;;;;;;;4.13;2.47;;;;;;;0.37;96.07;98483.88;5113853;28;20209;-65
2021/01/19 05:43:31;;;;;;;3.80;2.30;;;;;;;0.42;94.86;98492.44;5113764;28;20310;-64
2021/01/19 05:45:57;;;;;;;3.20;2.23;;;;;;;0.36;95.30;98502.97;5113423;28;20245;-64
2021/01/19 05:48:23;;;;;;;2.87;2.57;;;;;;;0.27;96.28;98502.34;5113810;28;20213;-64
2021/01/19 05:50:49;;;;;;;2.77;2.40;;;;;;;0.32;95.82;98497.91;5113661;28;20212;-67
2021/01/19 05:53:17;;;;;;;2.70;2.23;;;;;;;0.40;95.98;98486.44;5113248;28;20213;-67
2021/01/19 05:55:45;;;;;;;2.70;2.20;;;;;;;0.35;95.46;98479.63;5113537;28;20244;-67
2021/01/19 05:58:13;;;;;;;6.00;2.83;;;;;;;0.34;95.11;98489.19;5113376;28;20245;-67
2021/01/19 06:00:41;;;;;;;4.20;2.60;;;;;;;0.23;95.76;98485.97;5113521;28;20266;-67
2021/01/19 06:03:15;;;;;;;2.67;2.27;;;;;;;0.21;95.63;98487.75;5113595;28;20581;-68
2021/01/19 06:05:41;;;;;;;3.23;2.33;;;;;;;0.20;97.03;98486.00;5111831;28;20224;-66
2021/01/19 06:08:09;;;;;;;3.93;2.47;;;;;;;0.21;96.66;98466.97;5113171;28;20296;-67
2021/01/19 06:10:37;;;;;;;4.73;2.33;;;;;;;0.17;97.20;98460.13;5113290;28;20206;-66
2021/01/19 06:13:03;;;;;;;4.03;2.50;;;;;;;0.19;96.35;98460.91;5113290;28;20210;-67
2021/01/19 06:15:30;;;;;;;3.33;2.47;;;;;;;0.16;96.80;98452.34;5113477;28;20251;-68
2021/01/19 06:17:56;;;;;;;4.73;2.70;;;;;;;0.18;96.20;98460.94;5113137;28;20213;-67
2021/01/19 06:20:22;;;;;;;3.70;2.67;;;;;;;0.07;97.11;98443.00;5113583;28;20202;-67
2021/01/19 06:22:49;;;;;;;2.73;2.43;;;;;;;0.04;97.00;98440.50;5116475;28;20203;-68
2021/01/19 06:25:15;;;;;;;4.47;2.60;;;;;;;0.10;97.05;98437.75;5117385;28;20671;-67
2021/01/19 06:27:41;;;;;;;3.40;2.43;;;;;;;0.11;96.98;98439.47;5117338;28;20217;-68
2021/01/19 06:30:10;;;;;;;3.70;2.67;;;;;;;0.06;96.44;98443.91;5116384;28;20206;-68
2021/01/19 06:32:38;;;;;;;4.13;2.47;;;;;;;0.03;96.34;98441.41;5116342;28;20209;-67
2021/01/19 06:35:12;;;;;;;3.30;2.50;;;;;;;0.04;97.50;98447.44;5117032;28;20202;-67
2021/01/19 06:37:39;;;;;;;5.63;2.60;;;;;;;0.08;97.04;98444.72;5117016;28;20216;-67
2021/01/19 06:40:09;;;;;;;3.00;2.67;;;;;;;0.05;97.38;98439.59;5117193;28;20211;-67
2021/01/19 06:42:36;;;;;;;3.67;2.60;;;;;;;0.07;97.16;98453.41;5116750;28;20215;-69
2021/01/19 06:45:06;;;;;;;3.80;2.43;;;;;;;0.04;98.11;98448.28;5116965;28;20274;-67
2021/01/19 06:47:37;;;;;;;5.20;2.63;;;;;;;0.03;97.21;98446.59;5116924;28;20214;-66
2021/01/19 06:50:07;;;;;;;3.47;2.70;;;;;;;0.00;97.79;98444.03;5116942;28;20214;-66
2021/01/19 06:52:38;;;;;;;4.90;2.77;;;;;;;-0.05;97.58;98448.47;5116831;28;20219;-64
2021/01/19 06:55:23;;;;;;;2.87;2.53;;;;;;;-0.03;97.42;98443.25;5116597;27;20206;-64
2021/01/19 06:58:22;;;;;;;6.33;2.60;;;;;;;-0.04;97.46;98437.19;5114658;28;20213;-66
2021/01/19 07:00:59;;;;;;;3.43;2.43;;;;;;;-0.13;97.38;98424.44;5116720;28;20221;-69
2021/01/19 07:03:25;;;;;;;4.23;2.70;;;;;;;-0.13;97.72;98407.97;5116517;28;20216;-69
2021/01/19 07:06:03;;;;;;;3.70;2.80;;;;;;;-0.17;98.06;98407.19;5116717;28;20571;-69
2021/01/19 07:09:06;;;;;;;3.70;2.80;;;;;;;-0.22;98.02;98412.53;5116459;28;20219;-67
2021/01/19 07:11:58;;;;;;;4.53;3.07;;;;;;;-0.31;98.38;98412.75;5116170;28;20217;-68
2021/01/19 07:14:37;;;;;;;4.10;2.50;;;;;;;-0.33;99.08;98422.31;5116256;28;20217;-69
2021/01/19 07:17:07;;;;;;;4.07;2.80;;;;;;;-0.33;98.69;98417.13;5116147;28;20239;-68
2021/01/19 07:19:43;;;;;;;4.90;2.90;;;;;;;-0.36;98.53;98417.19;5116029;28;20231;-68
2021/01/19 07:22:10;;;;;;;4.07;2.70;;;;;;;-0.40;98.66;98410.34;5116244;28;20208;-67
2021/01/19 07:24:46;;;;;;;3.53;2.60;;;;;;;-0.38;98.39;98408.59;5114427;28;20214;-68
2021/01/19 07:27:18;;;;;;;5.47;2.60;;;;;;;-0.40;99.47;98398.22;5115969;28;20221;-68
2021/01/19 07:29:45;;;;;;;4.47;2.73;;;;;;;-0.36;98.52;98393.81;5115651;28;20221;-68
2021/01/19 07:32:18;;;;;;;3.20;2.50;;;;;;;-0.33;98.70;98391.16;5115502;28;20217;-68
2021/01/19 07:34:44;;;;;;;3.10;2.50;;;;;;;-0.29;98.51;98385.88;5115888;28;20225;-67
2021/01/19 07:37:10;;;;;;;3.17;2.43;;;;;;;-0.28;98.40;98394.50;5115699;28;20613;-67
2021/01/19 07:39:37;;;;;;;4.30;2.80;;;;;;;-0.28;98.98;98391.88;5115910;28;20209;-66
2021/01/19 07:42:11;;;;;;;3.37;2.50;;;;;;;-0.24;98.58;98386.63;5115939;28;20217;-68
2021/01/19 07:44:37;;;;;;;6.27;2.97;;;;;;;-0.10;97.29;98385.38;5115845;28;20554;-66
2021/01/19 07:47:15;;;;;;;2.70;2.30;;;;;;;-0.01;96.86;98389.50;5115746;28;20220;-67
2021/01/19 07:49:41;;;;;;;5.33;2.80;;;;;;;0.03;95.87;98383.38;5114093;28;20220;-66
2021/01/19 07:52:10;;;;;;;3.47;2.63;;;;;;;0.12;94.78;98389.19;5115281;27;20217;-67
2021/01/19 07:54:36;;;;;;;4.37;2.90;;;;;;;0.13;94.88;98390.91;5115599;28;20219;-67
2021/01/19 07:57:10;;;;;;;5.00;3.00;;;;;;;0.22;94.40;98380.28;5115327;28;20238;-67
2021/01/19 07:59:36;;;;;;;4.00;2.70;;;;;;;0.18;94.52;98373.47;5115082;28;20231;-66
2021/01/19 08:02:02;;;;;;;3.13;2.57;;;;;;;0.24;93.83;98368.09;5115376;28;20602;-66
2021/01/19 08:04:30;;;;;;;5.47;3.03;;;;;;;0.21;94.13;98368.19;5115392;28;20217;-66
2021/01/19 08:06:56;;;;;;;4.40;2.63;;;;;;;0.29;93.82;98370.59;5115449;28;20210;-66
2021/01/19 08:09:22;;;;;;;4.67;2.77;;;;;;;0.34;94.43;98359.19;5115219;28;20708;-67
2021/01/19 08:12:03;;;;;;;4.63;2.80;;;;;;;0.48;93.81;98357.09;5115005;28;20667;-68
2021/01/19 08:14:33;;;;;;;4.73;2.53;;;;;;;0.58;93.94;98353.38;5115197;28;20203;-67
2021/01/19 08:17:03;;;;;;;5.40;3.00;;;;;;;0.60;93.32;98341.16;5113567;28;20238;-66
2021/01/19 08:19:35;;;;;;;4.53;2.90;;;;;;;0.67;93.24;98340.09;5114972;28;20241;-68
2021/01/19 08:22:01;;;;;;;4.83;2.70;;;;;;;0.73;92.69;98344.28;5114820;28;20209;-67
2021/01/19 08:24:27;;;;;;;5.57;2.50;;;;;;;0.83;91.48;98331.00;5114750;28;20206;-66
2021/01/19 08:26:56;;;;;;;5.80;2.80;;;;;;;0.96;92.37;98326.28;5117561;28;20217;-67
2021/01/19 08:29:23;;;;;;;3.83;2.47;;;;;;;1.01;91.25;98311.41;5119572;28;20220;-67
2021/01/19 08:31:51;;;;;;;4.43;3.10;;;;;;;1.14;90.64;98308.41;5117441;28;20207;-67
2021/01/19 08:34:19;;;;;;;6.47;2.97;;;;;;;1.23;90.07;98302.91;5115674;28;20202;-66
2021/01/19 08:36:47;;;;;;;4.77;2.50;;;;;;;1.25;89.23;98308.09;5115619;28;20242;-65
2021/01/19 08:39:15;;;;;;;4.47;2.20;;;;;;;1.28;87.82;98311.44;5114464;28;20205;-66
2021/01/19 08:41:43;;;;;;;3.53;2.50;;;;;;;1.49;88.18;98309.97;5112722;28;20210;-66
2021/01/19 08:44:10;;;;;;;4.00;2.73;;;;;;;1.66;86.92;98313.72;5110798;28;20574;-66
2021/01/19 08:46:37;;;;;;;5.63;3.07;;;;;;;1.91;86.25;98314.66;5113434;28;20231;-67
2021/01/19 08:49:04;;;;;;;4.13;2.73;;;;;;;1.97;85.57;98298.00;5113222;28;20206;-66
2021/01/19 08:51:30;;;;;;;5.13;2.70;;;;;;;2.18;85.19;98311.16;5112674;28;20593;-67
2021/01/19 08:53:57;;;;;;;6.83;2.70;;;;;;;2.37;83.90;98309.63;5112178;28;20210;-67
2021/01/19 08:56:24;;;;;;;3.83;2.60;;;;;;;2.54;82.48;98311.66;5112180;28;20226;-65
2021/01/19 08:58:51;;;;;;;3.30;2.63;;;;;;;2.68;81.95;98304.19;5104137;28;20592;-68
2021/01/19 09:01:18;;;;;;;4.47;2.93;;;;;;;2.74;81.33;98304.84;5110890;28;20255;-65
2021/01/19 09:03:54;;;;;;;4.20;2.70;;;;;;;2.81;81.07;98308.94;5110841;28;20210;-67
2021/01/19 09:06:21;;;;;;;4.37;2.73;;;;;;;2.91;80.41;98317.28;5109663;28;20205;-68
2021/01/19 09:08:50;;;;;;;4.27;3.07;;;;;;;2.89;80.04;98319.94;5111171;28;20213;-67
2021/01/19 09:11:17;;;;;;;3.90;2.40;;;;;;;2.94;79.85;98312.81;5113033;28;20206;-68
2021/01/19 09:13:44;;;;;;;6.13;3.27;;;;;;;2.95;80.13;98308.44;5111995;28;20210;-68
2021/01/19 09:16:20;;;;;;;4.10;2.90;;;;;;;2.86;79.19;98319.19;5113141;28;20608;-69
2021/01/19 09:18:53;;;;;;;3.80;3.20;;;;;;;2.88;78.96;98318.25;5113197;28;20214;-68
2021/01/19 09:21:20;;;;;;;5.83;3.00;;;;;;;2.89;78.62;98303.44;5112054;28;20752;-68
2021/01/19 09:23:46;;;;;;;4.57;2.93;;;;;;;2.94;79.04;98302.38;5112565;28;20237;-68
2021/01/19 09:26:12;;;;;;;3.83;2.87;;;;;;;2.95;77.09;98285.78;5114044;28;20206;-67
2021/01/19 09:28:39;;;;;;;5.23;2.77;;;;;;;2.96;78.07;98279.69;5112915;28;20553;-67
2021/01/19 09:31:11;;;;;;;3.70;3.10;;;;;;;2.98;77.83;98277.84;5113724;28;20259;-67
2021/01/19 09:33:38;;;;;;;4.63;3.10;;;;;;;3.03;77.57;98275.94;5113756;28;20208;-67
2021/01/19 09:36:06;;;;;;;5.67;2.93;;;;;;;3.05;77.08;98274.09;5112134;28;20230;-67
2021/01/19 09:38:32;;;;;;;5.60;3.30;;;;;;;3.04;76.66;98272.41;5113505;28;20207;-67
2021/01/19 09:40:58;;;;;;;5.07;3.20;;;;;;;3.05;77.06;98268.06;5113777;28;20586;-67
2021/01/19 09:43:25;;;;;;;6.53;3.27;;;;;;;3.07;78.06;98254.00;5113430;28;20206;-67
2021/01/19 09:45:57;;;;;;;4.33;2.80;;;;;;;3.11;77.38;98260.81;5113439;28;20250;-67
2021/01/19 09:48:24;;;;;;;4.40;3.03;;;;;;;3.14;77.23;98255.50;5113650;28;20213;-67
2021/01/19 09:50:50;;;;;;;5.40;3.23;;;;;;;3.21;76.78;98236.06;5113436;28;20210;-66
2021/01/19 09:53:24;;;;;;;4.33;2.77;;;;;;;3.20;76.83;98247.44;5113347;28;20213;-66
2021/01/19 09:55:50;;;;;;;3.83;2.83;;;;;;;3.24;76.51;98243.78;5113275;28;20714;-68
2021/01/19 09:58:21;;;;;;;4.70;2.67;;;;;;;3.26;77.34;98236.75;5117723;28;20210;-67
2021/01/19 10:00:46;;;;;;;4.70;2.93;;;;;;;3.29;76.70;98230.53;5116046;28;20599;-67
2021/01/19 10:03:15;;;;;;;4.77;2.83;;;;;;;3.33;76.56;98232.13;5117834;28;20241;-66
2021/01/19 10:05:41;;;;;;;5.17;3.30;;;;;;;3.42;76.49;98227.38;5117345;28;20675;-67
2021/01/19 10:08:08;;;;;;;3.37;2.80;;;;;;;3.42;77.44;98222.16;5117422;28;20727;-67
2021/01/19 10:10:35;;;;;;;4.23;2.87;;;;;;;3.46;75.92;98218.53;5117357;28;20210;-67
2021/01/19 10:13:03;;;;;;;6.30;3.20;;;;;;;3.48;76.77;98216.69;5117698;27;20208;-67
2021/01/19 10:15:29;;;;;;;5.27;3.60;;;;;;;3.47;76.37;98214.13;5117216;28;20221;-67
2021/01/19 10:17:57;;;;;;;4.63;3.30;;;;;;;3.48;76.04;98214.09;5117451;28;20206;-67
2021/01/19 10:20:31;;;;;;;5.13;3.27;;;;;;;3.52;76.18;98210.44;5117577;28;20582;-67
2021/01/19 10:22:58;;;;;;;4.40;2.97;;;;;;;3.45;75.85;98208.13;5117345;28;20602;-67
2021/01/19 10:25:29;;;;;;;3.67;2.93;;;;;;;3.52;76.00;98197.38;5116986;28;20228;-66
2021/01/19 10:27:56;;;;;;;5.93;3.63;;;;;;;3.50;76.10;98187.91;5115355;28;20667;-66
2021/01/19 10:30:28;;;;;;;5.07;3.33;;;;;;;3.55;76.61;98186.78;5117306;28;20211;-66
2021/01/19 10:32:54;;;;;;;5.97;3.40;;;;;;;3.57;76.20;98189.34;5116993;28;20205;-66
2021/01/19 10:35:27;;;;;;;5.23;3.23;;;;;;;3.59;76.71;98187.53;5117163;28;20211;-66
2021/01/19 10:37:55;;;;;;;5.20;3.63;;;;;;;3.60;76.78;98179.63;5116004;28;20232;-66
2021/01/19 10:40:21;;;;;;;5.57;3.07;;;;;;;3.56;76.58;98172.81;5116126;28;20672;-66
2021/01/19 10:42:47;;;;;;;5.47;3.80;;;;;;;3.53;76.42;98172.94;5116449;28;20207;-66
2021/01/19 10:45:23;;;;;;;4.27;3.20;;;;;;;3.52;76.27;98155.59;5115797;28;20213;-66
2021/01/19 10:47:49;;;;;;;5.83;3.37;;;;;;;3.50;76.30;98149.56;5112821;28;20198;-67
2021/01/19 10:50:17;;;;;;;5.80;3.70;;;;;;;3.45;77.85;98138.47;5115966;28;20213;-66
2021/01/19 10:52:52;;;;;;;6.20;3.87;;;;;;;3.55;77.30;98129.31;5114381;28;20209;-66
2021/01/19 10:55:18;;;;;;;5.73;3.53;;;;;;;3.62;76.55;98130.75;5116262;28;20216;-66
2021/01/19 10:57:44;;;;;;;4.77;3.53;;;;;;;3.66;76.66;98124.50;5116063;28;20253;-66
2021/01/19 11:00:11;;;;;;;5.20;3.63;;;;;;;3.68;76.92;98104.34;5116131;28;20707;-68
2021/01/19 11:02:37;;;;;;;5.80;3.90;;;;;;;3.71;77.68;98111.22;5116304;28;20211;-66
2021/01/19 11:05:03;;;;;;;6.87;3.93;;;;;;;3.75;76.77;98095.38;5116179;28;20210;-66
2021/01/19 11:07:29;;;;;;;5.37;3.60;;;;;;;3.76;76.61;98085.75;5115438;28;20263;-66
2021/01/19 11:09:56;;;;;;;3.67;3.10;;;;;;;3.76;76.92;98076.16;5116015;28;20735;-67
2021/01/19 11:12:22;;;;;;;4.47;3.73;;;;;;;3.71;76.79;98083.34;5115899;28;20212;-67
2021/01/19 11:14:48;;;;;;;5.20;3.63;;;;;;;3.68;76.72;98077.41;5115232;28;20683;-66
2021/01/19 11:17:14;;;;;;;5.83;3.90;;;;;;;3.68;76.82;98083.44;5115411;28;20237;-66
2021/01/19 11:19:41;;;;;;;5.67;3.57;;;;;;;3.76;77.17;98086.59;5113915;28;20244;-67
2021/01/19 11:22:08;;;;;;;6.20;3.50;;;;;;;3.86;76.49;98085.28;5115346;28;20710;-67
2021/01/19 11:24:34;;;;;;;7.77;3.67;;;;;;;3.86;77.04;98076.59;5115343;28;20208;-67
2021/01/19 11:27:01;;;;;;;5.63;3.40;;;;;;;3.89;77.41;98085.16;5115305;28;20203;-67
2021/01/19 11:29:27;;;;;;;4.97;3.30;;;;;;;3.92;77.85;98066.72;5114395;28;20223;-66
2021/01/19 11:31:53;;;;;;;4.53;3.47;;;;;;;3.95;77.46;98061.38;5115245;28;20872;-66
2021/01/19 11:34:19;;;;;;;5.13;3.33;;;;;;;3.97;77.32;98063.91;5115142;28;20297;-68
2021/01/19 11:36:45;;;;;;;5.97;3.50;;;;;;;3.97;77.62;98056.91;5115616;28;20230;-67
2021/01/19 11:39:11;;;;;;;6.97;4.13;;;;;;;4.00;77.22;98071.59;5115313;28;20207;-66
2021/01/19 11:41:38;;;;;;;4.13;3.50;;;;;;;4.04;76.93;98066.16;5115288;28;20625;-66
2021/01/19 11:44:06;;;;;;;5.67;3.27;;;;;;;4.13;77.83;98060.53;5115225;28;20643;-67
2021/01/19 11:46:33;;;;;;;6.77;3.47;;;;;;;4.21;77.20;98062.81;5113512;28;20218;-66